createdAt,value
2018-05-31T00:00:59.486Z,100944.83
2018-05-31T00:03:27.707Z,100939.46
2018-05-31T00:05:55.914Z,100947.83
2018-05-31T00:08:24.119Z,100937.60
2018-05-31T00:10:52.352Z,100938.37
2018-05-31T00:13:20.544Z,100929.73
2018-05-31T00:15:48.764Z,100934.93
2018-05-31T00:18:16.969Z,100931.52
2018-05-31T00:20:45.195Z,100922.41
2018-05-31T00:23:13.430Z,100924.19
2018-05-31T00:25:41.663Z,100933.95
2018-05-31T00:28:09.914Z,100928.86
2018-05-31T00:30:38.110Z,100929.64
2018-05-31T00:33:06.287Z,100929.30
2018-05-31T00:35:34.578Z,100927.38
2018-05-31T00:38:02.769Z,100933.77
2018-05-31T00:40:31.010Z,100940.16
2018-05-31T00:42:59.191Z,100942.90
2018-05-31T00:45:27.480Z,100938.29
2018-05-31T00:47:55.671Z,100930.65
2018-05-31T00:50:23.914Z,100935.31
2018-05-31T00:52:52.105Z,100934.59
2018-05-31T00:58:22.754Z,100935.47
2018-05-31T01:00:50.940Z,100935.58
2018-05-31T01:03:19.136Z,100940.55
2018-05-31T01:05:47.352Z,100940.18
2018-05-31T01:08:15.542Z,100942.44
2018-05-31T01:10:43.758Z,100941.77
2018-05-31T01:13:11.968Z,100941.95
2018-05-31T01:15:40.227Z,100943.78
2018-05-31T01:18:08.421Z,100945.84
2018-05-31T01:20:36.632Z,100935.66
2018-05-31T01:23:04.795Z,100934.17
2018-05-31T01:25:33.021Z,100942.53
2018-05-31T01:28:01.314Z,100943.53
2018-05-31T01:30:29.513Z,100935.75
2018-05-31T01:32:57.738Z,100936.81
2018-05-31T01:35:25.937Z,100938.92
2018-05-31T01:40:48.690Z,100930.38
2018-05-31T01:43:16.891Z,100930.44
2018-05-31T01:45:45.090Z,100924.28
2018-05-31T01:48:13.343Z,100923.52
2018-05-31T01:50:41.530Z,100926.25
2018-05-31T01:53:09.755Z,100921.30
2018-05-31T01:55:38.000Z,100919.48
2018-05-31T01:58:06.221Z,100924.77
2018-05-31T02:00:34.429Z,100924.56
2018-05-31T02:03:02.599Z,100921.87
2018-05-31T02:05:30.805Z,100921.23
2018-05-31T02:07:59.010Z,100922.00
2018-05-31T02:10:27.240Z,100920.31
2018-05-31T02:12:55.436Z,100919.39
2018-05-31T02:15:23.613Z,100914.64
2018-05-31T02:17:51.818Z,100915.03
2018-05-31T02:20:20.008Z,100921.11
2018-05-31T02:22:48.224Z,100925.28
2018-05-31T02:25:16.441Z,100923.08
2018-05-31T02:27:44.651Z,100925.70
2018-05-31T02:30:12.881Z,100918.98
2018-05-31T02:32:41.088Z,100929.43
2018-05-31T02:35:09.312Z,100931.31
2018-05-31T02:37:37.511Z,100922.81
2018-05-31T02:40:05.729Z,100925.67
2018-05-31T02:42:33.927Z,100935.20
2018-05-31T02:45:02.159Z,100945.97
2018-05-31T02:47:30.348Z,100946.08
2018-05-31T02:49:58.545Z,100939.20
2018-05-31T02:52:26.743Z,100943.72
2018-05-31T02:54:54.930Z,100942.41
2018-05-31T02:57:23.138Z,100957.70
2018-05-31T02:59:51.312Z,100943.85
2018-05-31T03:02:19.520Z,100951.74
2018-05-31T03:04:47.728Z,100940.18
2018-05-31T03:07:15.894Z,100951.42
2018-05-31T03:09:44.115Z,100950.56
2018-05-31T03:12:12.320Z,100945.67
2018-05-31T03:14:40.543Z,100943.13
2018-05-31T03:17:08.744Z,100947.96
2018-05-31T03:19:36.966Z,100947.96
2018-05-31T03:22:05.160Z,100952.34
2018-05-31T03:24:33.346Z,100959.52
2018-05-31T03:27:01.582Z,100951.26
2018-05-31T03:29:29.812Z,100950.78
2018-05-31T03:31:58.050Z,100948.36
2018-05-31T03:34:26.309Z,100954.12
2018-05-31T03:36:54.539Z,100948.20
2018-05-31T03:39:22.699Z,100953.70
2018-05-31T03:41:50.877Z,100953.27
2018-05-31T03:44:19.084Z,100965.91
2018-05-31T03:46:47.284Z,100972.02
2018-05-31T03:49:15.571Z,100973.12
2018-05-31T03:51:43.762Z,100972.82
2018-05-31T03:54:11.922Z,100974.38
2018-05-31T03:56:40.109Z,100982.42
2018-05-31T03:59:08.300Z,100975.85
2018-05-31T04:01:36.482Z,100973.22
2018-05-31T04:04:04.665Z,100971.22
2018-05-31T04:06:32.880Z,100973.89
2018-05-31T04:09:01.063Z,100968.87
2018-05-31T04:11:29.282Z,100967.75
2018-05-31T04:13:57.480Z,100963.09
2018-05-31T04:16:25.668Z,100959.58
2018-05-31T04:19:07.978Z,100961.00
2018-05-31T04:21:38.872Z,100964.33
2018-05-31T04:24:07.353Z,100970.64
2018-05-31T04:26:35.516Z,100977.83
2018-05-31T04:29:03.794Z,100987.70
2018-05-31T04:31:31.969Z,100988.22
2018-05-31T04:34:00.210Z,100993.77
2018-05-31T04:36:28.411Z,100989.44
2018-05-31T04:38:56.649Z,100992.55
2018-05-31T04:41:24.842Z,100982.90
2018-05-31T04:43:53.011Z,100984.05
2018-05-31T04:46:21.220Z,100985.93
2018-05-31T04:48:49.402Z,100990.23
2018-05-31T04:51:17.608Z,100992.56
2018-05-31T04:53:45.831Z,100993.77
2018-05-31T04:56:14.035Z,100989.48
2018-05-31T04:58:42.310Z,100995.77
2018-05-31T05:01:10.523Z,101002.69
2018-05-31T05:03:38.703Z,101001.03
2018-05-31T05:06:06.876Z,100996.35
2018-05-31T05:08:35.077Z,100996.37
2018-05-31T05:11:17.647Z,100994.08
2018-05-31T05:13:47.813Z,101000.43
2018-05-31T05:16:16.052Z,101001.80
2018-05-31T05:18:44.275Z,101001.61
2018-05-31T05:21:12.441Z,100997.75
2018-05-31T05:23:40.659Z,100999.59
2018-05-31T05:26:08.920Z,101003.05
2018-05-31T05:28:37.097Z,101011.02
2018-05-31T05:31:05.337Z,101014.34
2018-05-31T05:33:33.505Z,101011.95
2018-05-31T05:36:01.707Z,101013.27
2018-05-31T05:38:29.965Z,101004.38
2018-05-31T05:40:58.139Z,101012.59
2018-05-31T05:43:26.381Z,101014.54
2018-05-31T05:45:54.544Z,101011.25
2018-05-31T05:48:22.726Z,101009.97
2018-05-31T05:50:50.953Z,101015.34
2018-05-31T05:53:19.163Z,101025.34
2018-05-31T05:55:47.363Z,101027.75
2018-05-31T05:58:15.564Z,101018.38
2018-05-31T06:00:43.720Z,101013.77
2018-05-31T06:03:11.909Z,101009.74
2018-05-31T06:05:40.063Z,101005.00
2018-05-31T06:08:08.268Z,101017.77
2018-05-31T06:10:36.581Z,101023.15
2018-05-31T06:13:04.789Z,101029.30
2018-05-31T06:15:33.061Z,101037.86
2018-05-31T06:18:01.192Z,101038.06
2018-05-31T06:20:29.427Z,101046.14
2018-05-31T06:22:57.608Z,101055.97
2018-05-31T06:25:25.831Z,101062.18
2018-05-31T06:27:54.024Z,101069.91
2018-05-31T06:30:22.243Z,101069.00
2018-05-31T06:32:50.455Z,101069.34
2018-05-31T06:35:18.656Z,101069.48
2018-05-31T06:37:46.840Z,101069.92
2018-05-31T06:40:15.037Z,101077.95
2018-05-31T06:42:43.210Z,101077.90
2018-05-31T06:45:11.358Z,101079.09
2018-05-31T06:47:39.549Z,101089.72
2018-05-31T06:50:07.759Z,101087.07
2018-05-31T06:52:35.919Z,101089.79
2018-05-31T06:55:04.124Z,101079.73
2018-05-31T06:57:32.294Z,101078.38
2018-05-31T07:00:00.481Z,101085.00
2018-05-31T07:02:28.642Z,101087.92
2018-05-31T07:07:31.176Z,101085.92
2018-05-31T07:09:59.351Z,101089.22
2018-05-31T07:12:27.543Z,101093.36
2018-05-31T07:14:55.746Z,101088.02
2018-05-31T07:17:23.953Z,101081.00
2018-05-31T07:19:52.134Z,101086.73
2018-05-31T07:22:20.286Z,101076.08
2018-05-31T07:24:48.486Z,101085.70
2018-05-31T07:27:16.679Z,101086.86
2018-05-31T07:29:44.883Z,101081.91
2018-05-31T07:32:13.071Z,101072.98
2018-05-31T07:34:41.275Z,101086.14
2018-05-31T07:37:09.432Z,101083.54
2018-05-31T07:39:37.593Z,101080.72
2018-05-31T07:42:05.783Z,101077.22
2018-05-31T07:44:33.932Z,101076.27
2018-05-31T07:47:02.129Z,101073.50
2018-05-31T07:49:30.319Z,101077.83
2018-05-31T07:51:58.516Z,101066.73
2018-05-31T07:54:26.714Z,101071.91
2018-05-31T07:56:54.868Z,101075.62
2018-05-31T07:59:23.071Z,101069.61
2018-05-31T08:01:51.234Z,101074.44
2018-05-31T08:04:19.490Z,101072.73
2018-05-31T08:06:47.675Z,101074.83
2018-05-31T08:09:15.836Z,101072.86
2018-05-31T08:11:44.114Z,101074.98
2018-05-31T08:14:12.298Z,101067.42
2018-05-31T08:16:40.469Z,101071.23
2018-05-31T08:19:08.681Z,101069.09
2018-05-31T08:21:36.864Z,101077.71
2018-05-31T08:24:05.022Z,101078.08
2018-05-31T08:26:42.042Z,101080.14
2018-05-31T08:29:13.684Z,101083.38
2018-05-31T08:31:41.942Z,101093.12
2018-05-31T08:34:10.232Z,101096.00
2018-05-31T08:36:38.457Z,101097.45
2018-05-31T08:39:06.689Z,101098.53
2018-05-31T08:41:34.941Z,101094.16
2018-05-31T08:44:03.212Z,101097.91
2018-05-31T08:46:31.445Z,101102.57
2018-05-31T08:48:59.686Z,101102.17
2018-05-31T08:51:27.877Z,101102.53
2018-05-31T08:53:56.042Z,101102.69
2018-05-31T08:56:24.221Z,101092.33
2018-05-31T08:58:52.441Z,101105.30
2018-05-31T09:01:20.746Z,101107.47
2018-05-31T09:03:48.887Z,101103.69
2018-05-31T09:06:17.082Z,101098.44
2018-05-31T09:08:45.247Z,101109.03
2018-05-31T09:11:13.427Z,101102.86
2018-05-31T09:13:41.642Z,101110.31
2018-05-31T09:16:09.835Z,101101.88
2018-05-31T09:18:38.112Z,101098.28
2018-05-31T09:21:06.291Z,101102.86
2018-05-31T09:23:34.440Z,101094.44
2018-05-31T09:26:02.636Z,101095.91
2018-05-31T09:28:30.823Z,101094.01
2018-05-31T09:30:59.029Z,101091.76
2018-05-31T09:33:27.164Z,101097.74
2018-05-31T09:35:55.351Z,101098.07
2018-05-31T09:38:23.507Z,101103.85
2018-05-31T09:40:51.674Z,101104.41
2018-05-31T09:43:19.861Z,101105.41
2018-05-31T09:45:48.082Z,101102.87
2018-05-31T09:48:16.276Z,101098.03
2018-05-31T09:50:44.416Z,101108.39
2018-05-31T09:53:12.621Z,101109.47
2018-05-31T09:55:40.777Z,101105.67
2018-05-31T09:58:08.989Z,101106.98
2018-05-31T10:00:37.956Z,101110.55
2018-05-31T10:03:06.100Z,101117.86
2018-05-31T10:05:34.387Z,101117.12
2018-05-31T10:08:04.378Z,101117.58
2018-05-31T10:10:33.931Z,101114.81
2018-05-31T10:13:03.127Z,101115.64
2018-05-31T10:15:31.487Z,101118.12
2018-05-31T10:18:00.799Z,101119.84
2018-05-31T10:20:28.978Z,101118.13
2018-05-31T10:22:57.164Z,101112.71
2018-05-31T10:25:25.375Z,101121.33
2018-05-31T10:27:54.354Z,101113.91
2018-05-31T10:30:22.518Z,101119.02
2018-05-31T10:32:50.714Z,101120.89
2018-05-31T10:35:18.924Z,101123.45
2018-05-31T10:37:47.117Z,101125.48
2018-05-31T10:40:15.328Z,101119.16
2018-05-31T10:42:43.535Z,101121.97
2018-05-31T10:45:11.724Z,101114.85
2018-05-31T10:47:39.888Z,101120.93
2018-05-31T10:50:08.175Z,101118.37
2018-05-31T10:52:36.457Z,101118.02
2018-05-31T10:55:05.875Z,101113.07
2018-05-31T10:57:35.108Z,101108.11
2018-05-31T11:00:03.301Z,101102.31
2018-05-31T11:02:31.694Z,101110.78
2018-05-31T11:04:59.854Z,101097.44
2018-05-31T11:07:28.007Z,101095.81
2018-05-31T11:09:56.210Z,101094.16
2018-05-31T11:12:24.364Z,101093.62
2018-05-31T11:14:52.548Z,101093.19
2018-05-31T11:17:20.732Z,101092.64
2018-05-31T11:19:48.966Z,101091.73
2018-05-31T11:22:17.138Z,101090.87
2018-05-31T11:24:45.326Z,101097.08
2018-05-31T11:27:13.498Z,101101.96
2018-05-31T11:29:41.761Z,101093.98
2018-05-31T11:32:09.927Z,101099.73
2018-05-31T11:34:38.118Z,101094.70
2018-05-31T11:37:06.320Z,101102.10
2018-05-31T11:39:34.813Z,101098.77
2018-05-31T11:42:02.989Z,101103.06
2018-05-31T11:44:31.184Z,101096.92
2018-05-31T11:46:59.317Z,101104.00
2018-05-31T11:49:27.496Z,101108.52
2018-05-31T11:51:55.658Z,101102.72
2018-05-31T11:54:23.911Z,101103.84
2018-05-31T11:56:52.093Z,101106.27
2018-05-31T11:59:20.275Z,101109.71
2018-05-31T12:01:48.600Z,101103.00
2018-05-31T12:04:16.793Z,101097.02
2018-05-31T12:06:44.989Z,101088.81
2018-05-31T12:09:13.183Z,101081.67
2018-05-31T12:11:41.345Z,101085.27
2018-05-31T12:14:09.547Z,101084.37
2018-05-31T12:16:37.710Z,101086.45
2018-05-31T12:19:05.871Z,101086.18
2018-05-31T12:21:34.054Z,101084.37
2018-05-31T12:24:02.234Z,101085.95
2018-05-31T12:26:30.418Z,101079.70
2018-05-31T12:28:58.606Z,101073.23
2018-05-31T12:31:26.773Z,101072.82
2018-05-31T12:33:54.953Z,101065.06
2018-05-31T12:36:23.125Z,101061.21
2018-05-31T12:38:51.298Z,101062.17
2018-05-31T12:41:19.496Z,101056.88
2018-05-31T12:43:47.685Z,101055.67
2018-05-31T12:46:15.866Z,101050.42
2018-05-31T12:48:44.014Z,101043.94
2018-05-31T12:51:12.208Z,101039.36
2018-05-31T12:53:40.373Z,101048.94
2018-05-31T12:56:08.591Z,101053.38
2018-05-31T12:58:36.775Z,101057.61
2018-05-31T13:01:04.967Z,101054.86
2018-05-31T13:03:33.147Z,101051.91
2018-05-31T13:06:01.360Z,101047.45
2018-05-31T13:08:29.508Z,101037.80
2018-05-31T13:10:57.655Z,101034.84
2018-05-31T13:13:25.849Z,101040.94
2018-05-31T13:15:54.015Z,101037.04
2018-05-31T13:18:22.188Z,101028.42
2018-05-31T13:20:50.347Z,101023.55
2018-05-31T13:23:18.510Z,101027.45
2018-05-31T13:25:46.788Z,101036.87
2018-05-31T13:28:14.947Z,101034.05
2018-05-31T13:30:43.166Z,101042.17
2018-05-31T13:33:11.330Z,101046.12
2018-05-31T13:35:39.517Z,101045.85
2018-05-31T13:38:07.813Z,101044.16
2018-05-31T13:40:35.959Z,101047.62
2018-05-31T13:43:04.187Z,101046.38
2018-05-31T13:45:32.335Z,101047.96
2018-05-31T13:48:00.520Z,101045.97
2018-05-31T13:50:28.723Z,101043.95
2018-05-31T13:52:56.912Z,101037.80
2018-05-31T13:55:25.075Z,101042.38
2018-05-31T13:57:53.273Z,101041.86
2018-05-31T14:00:21.452Z,101032.28
2018-05-31T14:02:49.669Z,101032.72
2018-05-31T14:05:17.828Z,101032.02
2018-05-31T14:07:45.999Z,101029.61
2018-05-31T14:10:14.180Z,101032.90
2018-05-31T14:12:42.334Z,101036.91
2018-05-31T14:15:10.528Z,101038.65
2018-05-31T14:17:38.696Z,101037.66
2018-05-31T14:20:06.900Z,101042.86
2018-05-31T14:22:35.087Z,101043.65
2018-05-31T14:25:03.264Z,101038.11
2018-05-31T14:27:31.455Z,101035.54
2018-05-31T14:29:59.662Z,101029.75
2018-05-31T14:32:27.832Z,101025.27
2018-05-31T14:34:56.039Z,101025.94
2018-05-31T14:37:24.195Z,101029.86
2018-05-31T14:39:52.378Z,101027.36
2018-05-31T14:42:20.529Z,101028.50
2018-05-31T14:44:48.724Z,101018.34
2018-05-31T14:47:16.891Z,101019.45
2018-05-31T14:49:45.066Z,101010.92
2018-05-31T14:52:13.279Z,101008.77
2018-05-31T14:54:41.462Z,101010.72
2018-05-31T14:57:09.641Z,101009.26
2018-05-31T14:59:37.854Z,101009.39
2018-05-31T15:02:06.023Z,101002.20
2018-05-31T15:04:34.189Z,101001.23
2018-05-31T15:07:02.434Z,101000.42
2018-05-31T15:09:30.724Z,101002.03
2018-05-31T15:11:58.874Z,100993.04
2018-05-31T15:14:27.086Z,100990.51
2018-05-31T15:16:55.281Z,100995.67
2018-05-31T15:19:23.471Z,100993.58
2018-05-31T15:21:51.671Z,100995.55
2018-05-31T15:24:19.932Z,100990.69
2018-05-31T15:26:48.261Z,100995.29
2018-05-31T15:29:16.459Z,100998.25
2018-05-31T15:31:44.805Z,101000.75
2018-05-31T15:34:13.096Z,100995.10
2018-05-31T15:36:41.447Z,100993.58
2018-05-31T15:39:09.690Z,100996.22
2018-05-31T15:41:37.876Z,100993.80
2018-05-31T15:44:06.220Z,100994.31
2018-05-31T15:46:34.430Z,100991.38
2018-05-31T15:49:02.666Z,100989.69
2018-05-31T15:51:31.026Z,100982.70
2018-05-31T15:53:59.234Z,100988.54
2018-05-31T15:56:27.394Z,100989.57
2018-05-31T15:58:55.602Z,100992.81
2018-05-31T16:01:23.784Z,100993.25
2018-05-31T16:03:51.975Z,100987.47
2018-05-31T16:06:20.164Z,100988.83
2018-05-31T16:08:48.359Z,100986.02
2018-05-31T16:11:16.941Z,100977.85
2018-05-31T16:13:45.174Z,100969.03
2018-05-31T16:16:13.451Z,100963.64
2018-05-31T16:18:42.292Z,100955.63
2018-05-31T16:21:10.809Z,100950.28
2018-05-31T16:23:39.548Z,100955.11
2018-05-31T16:26:07.936Z,100955.47
2018-05-31T16:28:36.332Z,100961.06
2018-05-31T16:31:04.642Z,100953.02
2018-05-31T16:33:32.855Z,100956.16
2018-05-31T16:36:01.133Z,100948.45
2018-05-31T16:38:29.322Z,100953.88
2018-05-31T16:40:57.597Z,100952.09
2018-05-31T16:43:25.897Z,100946.72
2018-05-31T16:45:54.164Z,100940.22
2018-05-31T16:48:22.406Z,100941.79
2018-05-31T16:50:50.734Z,100940.16
2018-05-31T16:53:19.208Z,100942.69
2018-05-31T16:55:47.492Z,100940.66
2018-05-31T16:58:15.813Z,100938.20
2018-05-31T17:00:44.339Z,100953.45
2018-05-31T17:03:12.667Z,100948.26
2018-05-31T17:05:40.885Z,100950.92
2018-05-31T17:08:09.210Z,100952.69
2018-05-31T17:10:37.476Z,100957.48
2018-05-31T17:13:05.742Z,100948.05
2018-05-31T17:15:34.038Z,100949.90
2018-05-31T17:18:02.503Z,100950.95
2018-05-31T17:20:30.747Z,100954.06
2018-05-31T17:22:59.004Z,100953.81
2018-05-31T17:25:27.286Z,100958.75
2018-05-31T17:27:55.591Z,100960.86
2018-05-31T17:30:24.104Z,100958.28
2018-05-31T17:32:52.291Z,100955.43
2018-05-31T17:35:20.496Z,100956.72
2018-05-31T17:37:48.761Z,100946.12
2018-05-31T17:40:16.987Z,100948.83
2018-05-31T17:42:45.213Z,100956.80
2018-05-31T17:45:13.453Z,100955.47
2018-05-31T17:47:41.665Z,100955.50
2018-05-31T17:50:09.961Z,100968.20
2018-05-31T17:52:38.249Z,100971.66
2018-05-31T17:55:06.496Z,100969.05
2018-05-31T17:57:34.737Z,100969.11
2018-05-31T18:00:02.910Z,100963.71
2018-05-31T18:02:31.078Z,100967.67
2018-05-31T18:04:59.261Z,100958.09
2018-05-31T18:07:27.438Z,100968.95
2018-05-31T18:09:55.624Z,100977.27
2018-05-31T18:12:23.819Z,100975.27
2018-05-31T18:14:52.019Z,100980.42
2018-05-31T18:17:20.205Z,100976.27
2018-05-31T18:19:48.393Z,100982.20
2018-05-31T18:22:16.580Z,100976.52
2018-05-31T18:24:44.827Z,100968.49
2018-05-31T18:27:13.000Z,100970.93
2018-05-31T18:29:41.247Z,100965.61
2018-05-31T18:32:11.247Z,100964.52
2018-05-31T18:34:39.449Z,100962.54
2018-05-31T18:37:07.688Z,100961.70
2018-05-31T18:39:35.949Z,100956.80
2018-05-31T18:42:04.107Z,100962.94
2018-05-31T18:44:32.294Z,100972.77
2018-05-31T18:47:00.501Z,100977.06
2018-05-31T18:49:28.693Z,100974.30
2018-05-31T18:51:57.018Z,100975.04
2018-05-31T18:54:25.270Z,100967.84
2018-05-31T18:56:53.487Z,100968.20
2018-05-31T18:59:21.683Z,100976.39
2018-05-31T19:01:49.880Z,100974.88
2018-05-31T19:04:18.109Z,100974.35
2018-05-31T19:06:46.288Z,100971.23
2018-05-31T19:09:20.163Z,100970.80
2018-05-31T19:11:48.354Z,100976.38
2018-05-31T19:14:16.550Z,100988.30
2018-05-31T19:16:44.772Z,100993.62
2018-05-31T19:19:18.514Z,100991.00
2018-05-31T19:21:46.722Z,100993.28
2018-05-31T19:24:20.335Z,101002.33
2018-05-31T19:26:48.506Z,101010.02
2018-05-31T19:29:16.741Z,101015.09
2018-05-31T19:31:44.913Z,101018.80
2018-05-31T19:34:13.165Z,101016.33
2018-05-31T19:36:47.045Z,101022.13
2018-05-31T19:39:15.270Z,101027.41
2018-05-31T19:41:43.470Z,101029.78
2018-05-31T19:44:17.197Z,101027.58
2018-05-31T19:46:45.370Z,101023.42
2018-05-31T19:49:13.550Z,101029.75
2018-05-31T19:51:47.355Z,101039.17
2018-05-31T19:54:15.566Z,101037.27
2018-05-31T19:56:43.723Z,101034.56
2018-05-31T19:59:17.510Z,101032.25
2018-05-31T20:01:51.257Z,101043.17
2018-05-31T20:04:19.458Z,101042.91
2018-05-31T20:06:47.629Z,101045.13
2018-05-31T20:09:15.805Z,101043.24
2018-05-31T20:11:44.014Z,101053.61
2018-05-31T20:14:12.222Z,101059.78
2018-05-31T20:16:40.432Z,101063.72
2018-05-31T20:19:08.611Z,101067.58
2018-05-31T20:21:36.837Z,101064.80
2018-05-31T20:24:05.020Z,101069.30
2018-05-31T20:26:33.275Z,101072.16
2018-05-31T20:29:01.496Z,101069.12
2018-05-31T20:31:29.711Z,101071.81
2018-05-31T20:33:57.944Z,101067.08
2018-05-31T20:36:26.120Z,101064.59
2018-05-31T20:38:54.286Z,101072.27
2018-05-31T20:41:22.528Z,101068.14
2018-05-31T20:43:50.696Z,101074.91
2018-05-31T20:46:18.909Z,101075.06
2018-05-31T20:48:47.094Z,101073.34
2018-05-31T20:51:15.326Z,101073.70
2018-05-31T20:53:44.455Z,101069.66
2018-05-31T20:56:12.650Z,101072.40
2018-05-31T20:58:40.842Z,101066.39
2018-05-31T21:01:09.020Z,101065.52
2018-05-31T21:03:37.272Z,101059.67
2018-05-31T21:06:05.433Z,101057.19
2018-05-31T21:08:33.646Z,101061.06
2018-05-31T21:11:01.852Z,101054.94
2018-05-31T21:13:30.019Z,101052.12
2018-05-31T21:15:58.185Z,101045.53
2018-05-31T21:18:26.394Z,101045.22
2018-05-31T21:20:54.605Z,101041.80
2018-05-31T21:23:22.819Z,101041.58
2018-05-31T21:25:50.971Z,101042.59
2018-05-31T21:28:19.170Z,101038.61
2018-05-31T21:30:47.349Z,101040.64
2018-05-31T21:33:15.546Z,101033.37
2018-05-31T21:35:43.811Z,101034.52
2018-05-31T21:38:11.959Z,101036.05
2018-05-31T21:40:40.242Z,101039.33
2018-05-31T21:43:08.463Z,101036.42
2018-05-31T21:45:36.643Z,101041.33
2018-05-31T21:48:04.856Z,101044.13
2018-05-31T21:50:33.039Z,101058.76
2018-05-31T21:53:01.253Z,101052.10
2018-05-31T21:55:29.437Z,101046.43
2018-05-31T21:57:57.654Z,101055.05
2018-05-31T22:00:40.288Z,101050.67
2018-05-31T22:03:08.461Z,101046.63
2018-05-31T22:05:36.717Z,101050.61
2018-05-31T22:08:04.843Z,101057.75
2018-05-31T22:10:33.036Z,101056.01
2018-05-31T22:13:01.219Z,101056.31
2018-05-31T22:15:29.397Z,101054.05
2018-05-31T22:17:57.611Z,101055.98
2018-05-31T22:20:25.791Z,101058.13
2018-05-31T22:22:53.956Z,101052.73
2018-05-31T22:25:22.167Z,101050.67
2018-05-31T22:27:50.315Z,101047.36
2018-05-31T22:30:18.514Z,101047.36
2018-05-31T22:32:46.741Z,101047.42
2018-05-31T22:35:14.888Z,101039.67
2018-05-31T22:37:43.072Z,101038.10
2018-05-31T22:40:11.285Z,101035.69
2018-05-31T22:42:39.452Z,101028.91
2018-05-31T22:45:07.646Z,101026.23
2018-05-31T22:47:35.858Z,101031.62
2018-05-31T22:50:04.062Z,101028.12
2018-05-31T22:52:32.255Z,101021.98
2018-05-31T22:55:00.435Z,101019.92
2018-05-31T22:57:28.605Z,101013.13
2018-05-31T22:59:56.830Z,101015.05
2018-05-31T23:02:25.017Z,101025.27
2018-05-31T23:04:53.212Z,101025.32
2018-05-31T23:07:21.404Z,101023.11
2018-05-31T23:09:49.625Z,101026.17
2018-05-31T23:12:17.798Z,101018.11
2018-05-31T23:14:46.010Z,101010.98
2018-05-31T23:17:14.220Z,101004.61
2018-05-31T23:19:42.431Z,101012.97
2018-05-31T23:22:10.628Z,101013.13
2018-05-31T23:24:38.800Z,101018.80
2018-05-31T23:27:07.049Z,101019.16
2018-05-31T23:29:35.323Z,101017.76
2018-05-31T23:32:03.482Z,101014.45
2018-05-31T23:34:31.670Z,101016.06
2018-05-31T23:36:59.824Z,101019.89
2018-05-31T23:39:28.026Z,101031.02
2018-05-31T23:41:56.213Z,101024.09
2018-05-31T23:44:24.423Z,101020.23
2018-05-31T23:46:52.590Z,101023.94
2018-05-31T23:49:20.853Z,101023.11
2018-05-31T23:51:49.039Z,101032.59
2018-05-31T23:54:17.232Z,101023.76
2018-05-31T23:56:45.428Z,101027.23
2018-05-31T23:59:13.639Z,101036.45
